PAAQ METAR and TAF weather

Enter ICAO airport designator
Station Type Date Time Source
PAAQ METAR 2020/01/24 02:53 UTC NOAA

PAAQ 240253Z AUTO 36004KT 10SM CLR M19/M21 A2945 RMK AO2 SLP982 I1000 I3000 T11891206 56001 TSNO


Station Type Date Time Source
PAAQ Decoded METAR 2020/01/24 02:53 UTC NOAA

PALMER MUNICIPAL AIRPORT, AK, United States (PAAQ) 61-36N 149-06W
Jan 23, 2020 - 09:53 PM EST / 2020.01.24 0253 UTC
Wind: from the N (360 degrees) at 5 MPH (4 KT):0
Visibility: 10 mile(s):0
Sky conditions: clear
Temperature: -2.0 F (-18.9 C)
Windchill: -13 F (-25 C):2
Dew Point: -5.1 F (-20.6 C)
Relative Humidity: 86%
Pressure (altimeter): 29.45 in. Hg (997 hPa)
Pressure tendency: 0.00 inches (0.1 hPa) lower than three hours ago
ob: PAAQ 240253Z AUTO 36004KT 10SM CLR M19/M21 A2945 RMK AO2 SLP982 I1000 I3000 T11891206 56001 TSNO
cycle: 3

Station Type Date Time Source
PAAQ TAF 2020/01/23 22:46 UTC NOAA

TAF
AMD PAAQ 232144Z 2322/2418 32004KT 1 1/2SM -SN BR OVC015
FM240200 VRB03KT 4SM BR VCSH OVC025
FM240400 VRB03KT P6SM BKN025 OVC050

Example: see airport list